createdAt,value
2019-02-06T00:00:11.221Z,85.3
2019-02-06T00:01:11.201Z,85.59
2019-02-06T00:02:11.178Z,85.4
2019-02-06T00:03:10.910Z,85.59
2019-02-06T00:04:11.138Z,86.15
2019-02-06T00:05:17.898Z,86.02
2019-02-06T00:06:11.117Z,85.83
2019-02-06T00:07:11.084Z,87.05
2019-02-06T00:08:11.084Z,87.71
2019-02-06T00:09:10.786Z,87.52
2019-02-06T00:10:11.025Z,87.43
2019-02-06T00:11:10.996Z,87.15
2019-02-06T00:12:10.974Z,87.34
2019-02-06T00:13:11.034Z,87.52
2019-02-06T00:14:10.978Z,87.9
2019-02-06T00:15:10.913Z,87.43
2019-02-06T00:16:10.698Z,88.75
2019-02-06T00:17:10.888Z,89.13
2019-02-06T00:18:10.868Z,88.75
2019-02-06T00:19:11.154Z,89.13
2019-02-06T00:20:10.802Z,89.6
2019-02-06T00:21:10.785Z,89.69
2019-02-06T00:22:10.766Z,89.22
2019-02-06T00:23:10.739Z,88.75
2019-02-06T00:24:10.721Z,88.84
2019-02-06T00:25:10.694Z,87.99
2019-02-06T00:26:10.433Z,87.43
2019-02-06T00:27:10.650Z,86.49
2019-02-06T00:28:10.626Z,86.4
2019-02-06T00:29:10.609Z,86.02
2019-02-06T00:30:10.588Z,86.02
2019-02-06T00:31:10.572Z,85.36
2019-02-06T00:32:10.555Z,84.69
2019-02-06T00:33:10.526Z,84.6
2019-02-06T00:34:10.596Z,84.13
2019-02-06T00:35:10.484Z,83.09
2019-02-06T00:36:10.460Z,81.96
2019-02-06T00:37:10.443Z,81.11
2019-02-06T00:38:10.419Z,80.73
2019-02-06T00:39:10.457Z,80.36
2019-02-06T00:40:10.385Z,78.85
2019-02-06T00:41:10.111Z,78.19
2019-02-06T00:42:10.387Z,78.47
2019-02-06T00:43:10.308Z,78.19
2019-02-06T00:44:11.277Z,78.38
2019-02-06T00:45:10.283Z,78.19
2019-02-06T00:46:10.247Z,78.19
2019-02-06T00:47:10.237Z,78.47
2019-02-06T00:48:10.209Z,78.66
2019-02-06T00:49:10.184Z,79.41
2019-02-06T00:50:10.515Z,79.13
2019-02-06T00:51:10.150Z,79.22
2019-02-06T00:52:10.121Z,78.56
2019-02-06T00:53:10.100Z,78.28
2019-02-06T00:54:10.084Z,77.34
2019-02-06T00:55:10.056Z,75.92
2019-02-06T00:56:10.037Z,74.88
2019-02-06T00:57:09.785Z,73.75
2019-02-06T00:58:09.993Z,72.91
2019-02-06T00:59:09.972Z,73.19
2019-02-06T01:00:09.959Z,72.91
2019-02-06T01:01:10.056Z,73.1
2019-02-06T01:02:09.658Z,72.81
2019-02-06T01:03:09.895Z,72.72
2019-02-06T01:04:09.873Z,72.25
2019-02-06T01:05:09.896Z,71.77
2019-02-06T01:06:09.829Z,71.49
2019-02-06T01:07:09.805Z,71.21
2019-02-06T01:08:09.790Z,70.54
2019-02-06T01:09:09.768Z,69.42
2019-02-06T01:10:09.491Z,69.89
2019-02-06T01:11:09.725Z,69.13
2019-02-06T01:12:09.692Z,68.76
2019-02-06T01:13:09.682Z,68.66
2019-02-06T01:14:09.650Z,67.72
2019-02-06T01:15:09.674Z,67.81
2019-02-06T01:16:09.614Z,68.95
2019-02-06T01:17:09.636Z,69.04
2019-02-06T01:18:09.579Z,69.13
2019-02-06T01:19:09.540Z,69.51
2019-02-06T01:20:09.823Z,69.23
2019-02-06T01:21:09.506Z,68.85
2019-02-06T01:22:09.482Z,68.66
2019-02-06T01:23:09.458Z,68.85
2019-02-06T01:24:09.439Z,68.66
2019-02-06T01:25:09.421Z,68.19
2019-02-06T01:26:09.395Z,67.81
2019-02-06T01:27:09.367Z,67.72
2019-02-06T01:28:09.350Z,67.81
2019-02-06T01:29:09.336Z,67.62
2019-02-06T01:30:09.379Z,67.72
2019-02-06T01:31:09.284Z,67.91
2019-02-06T01:32:09.265Z,67.25
2019-02-06T01:33:09.244Z,67.15
2019-02-06T01:34:08.978Z,67.25
2019-02-06T01:35:09.510Z,66.87
2019-02-06T01:36:09.182Z,66.02
2019-02-06T01:37:09.162Z,64.79
2019-02-06T01:38:09.145Z,63.76
2019-02-06T01:39:09.118Z,63
2019-02-06T01:40:09.095Z,63
2019-02-06T01:41:09.070Z,62.91
2019-02-06T01:42:09.051Z,62.81
2019-02-06T01:43:09.330Z,62.72
2019-02-06T01:44:09.026Z,62.06
2019-02-06T01:45:08.734Z,62.34
2019-02-06T01:46:08.968Z,62.15
2019-02-06T01:47:08.963Z,62.06
2019-02-06T01:48:08.923Z,61.96
2019-02-06T01:49:08.898Z,61.49
2019-02-06T01:50:08.902Z,60.17
2019-02-06T01:51:08.857Z,58.38
2019-02-06T01:52:08.834Z,57.43
2019-02-06T01:53:08.820Z,56.68
2019-02-06T01:54:08.789Z,56.21
2019-02-06T01:55:08.772Z,55.18
2019-02-06T01:56:08.748Z,53.29
2019-02-06T01:57:08.726Z,53.1
2019-02-06T01:58:09.041Z,53.1
2019-02-06T01:59:08.684Z,53.1
2019-02-06T02:00:08.657Z,53.38
2019-02-06T02:01:08.643Z,54.42
2019-02-06T02:02:08.618Z,53.66
2019-02-06T02:03:08.695Z,52.72
2019-02-06T02:04:08.584Z,52.53
2019-02-06T02:05:08.826Z,52.72
2019-02-06T02:06:08.536Z,52.44
2019-02-06T02:07:08.515Z,49.61
2019-02-06T02:08:08.491Z,48.29
2019-02-06T02:09:08.470Z,49.42
2019-02-06T02:10:08.455Z,50.36
2019-02-06T02:11:08.433Z,51.5
2019-02-06T02:12:08.420Z,53.1
2019-02-06T02:13:08.718Z,54.23
2019-02-06T02:14:08.377Z,54.04
2019-02-06T02:15:08.344Z,53.66
2019-02-06T02:16:08.322Z,52.72
2019-02-06T02:17:08.305Z,51.97
2019-02-06T02:18:08.281Z,51.78
2019-02-06T02:19:08.363Z,51.97
2019-02-06T02:20:08.243Z,53.1
2019-02-06T02:21:08.214Z,53.57
2019-02-06T02:22:08.192Z,53.76
2019-02-06T02:23:08.178Z,54.04
2019-02-06T02:24:07.900Z,54.33
2019-02-06T02:25:08.127Z,54.51
2019-02-06T02:26:08.104Z,55.83
2019-02-06T02:27:07.838Z,56.49
2019-02-06T02:28:08.297Z,57.15
2019-02-06T02:29:07.792Z,57.72
2019-02-06T02:30:08.025Z,56.77
2019-02-06T02:31:07.995Z,55.83
2019-02-06T02:32:07.985Z,55.08
2019-02-06T02:33:07.959Z,54.99
2019-02-06T02:34:07.935Z,55.27
2019-02-06T02:35:07.915Z,56.4
2019-02-06T02:36:18.204Z,56.49
2019-02-06T02:37:07.879Z,56.77
2019-02-06T02:38:07.857Z,56.3
2019-02-06T02:39:07.827Z,55.55
2019-02-06T02:40:07.808Z,55.46
2019-02-06T02:41:07.803Z,53.57
2019-02-06T02:42:07.781Z,53.76
2019-02-06T02:43:07.741Z,51.68
2019-02-06T02:44:08.135Z,51.31
2019-02-06T02:45:07.701Z,51.12
2019-02-06T02:46:07.683Z,51.5
2019-02-06T02:47:07.667Z,51.87
2019-02-06T02:48:07.637Z,52.53
2019-02-06T02:49:07.623Z,52.62
2019-02-06T02:50:07.594Z,49.8
2019-02-06T02:51:07.782Z,48.1
2019-02-06T02:52:07.550Z,46.03
2019-02-06T02:53:07.532Z,46.03
2019-02-06T02:54:07.509Z,44.7
2019-02-06T02:55:07.520Z,42.44
2019-02-06T02:56:07.469Z,41.31
2019-02-06T02:57:07.443Z,40.74
2019-02-06T02:58:07.173Z,40.27
2019-02-06T02:59:07.691Z,40.27
2019-02-06T03:00:07.382Z,38.5
2019-02-06T03:01:07.355Z,37.27
2019-02-06T03:02:07.341Z,36.42
2019-02-06T03:03:07.311Z,35.57
2019-02-06T03:04:07.292Z,34.82
2019-02-06T03:05:07.267Z,34.53
2019-02-06T03:06:07.252Z,33.97
2019-02-06T03:07:07.488Z,33.59
2019-02-06T03:08:07.215Z,33.03
2019-02-06T03:09:07.187Z,32.08
2019-02-06T03:10:07.165Z,31.33
2019-02-06T03:11:07.138Z,30.57
2019-02-06T03:12:07.123Z,29.44
2019-02-06T03:13:07.230Z,28.88
2019-02-06T03:14:07.277Z,28.21
2019-02-06T03:15:07.063Z,27.75
2019-02-06T03:16:07.039Z,27.47
2019-02-06T03:17:07.017Z,27.19
2019-02-06T03:18:06.991Z,27.47
2019-02-06T03:19:06.975Z,26.9
2019-02-06T03:20:06.962Z,26.34
2019-02-06T03:21:06.932Z,26.15
2019-02-06T03:22:07.130Z,26.34
2019-02-06T03:23:06.894Z,25.77
2019-02-06T03:24:06.883Z,25.4
2019-02-06T03:25:06.846Z,25.3
2019-02-06T03:26:06.827Z,25.49
2019-02-06T03:27:06.807Z,25.21
2019-02-06T03:28:06.789Z,24.83
2019-02-06T03:29:06.518Z,25.11
2019-02-06T03:30:06.745Z,24.54
2019-02-06T03:31:06.745Z,24.64
2019-02-06T03:32:06.707Z,24.54
2019-02-06T03:33:06.688Z,24.54
2019-02-06T03:34:07.530Z,24.26
2019-02-06T03:35:06.650Z,24.17
2019-02-06T03:36:06.620Z,24.07
2019-02-06T03:37:06.851Z,24.26
2019-02-06T03:38:06.579Z,24.17
2019-02-06T03:39:06.558Z,24.07
2019-02-06T03:40:06.540Z,23.98
2019-02-06T03:41:06.528Z,23.69
2019-02-06T03:42:06.504Z,23.79
2019-02-06T03:43:06.484Z,23.69
2019-02-06T03:44:06.517Z,24.17
2019-02-06T03:45:06.802Z,24.26
2019-02-06T03:46:06.426Z,24.37
2019-02-06T03:47:06.394Z,24.35
2019-02-06T03:48:06.385Z,24.83
2019-02-06T03:49:06.356Z,24.74
2019-02-06T03:50:06.338Z,25.03
2019-02-06T03:51:06.315Z,25.11
2019-02-06T03:52:06.584Z,25.41
2019-02-06T03:53:06.027Z,25.88
2019-02-06T03:54:06.075Z,26.64
2019-02-06T03:55:06.265Z,26.64
2019-02-06T03:56:06.215Z,27.11
2019-02-06T03:57:06.050Z,27.39
2019-02-06T03:58:06.176Z,27.48
2019-02-06T03:59:06.155Z,27.86
2019-02-06T04:00:06.490Z,27.77
2019-02-06T04:01:06.117Z,28.62
2019-02-06T04:02:06.094Z,28.81
2019-02-06T04:03:06.078Z,29
2019-02-06T04:04:05.811Z,29.94
2019-02-06T04:05:06.062Z,30.32
2019-02-06T04:06:06.024Z,31.07
2019-02-06T04:07:06.312Z,31.07
2019-02-06T04:08:05.980Z,32.02
2019-02-06T04:09:05.956Z,32.78
2019-02-06T04:10:05.950Z,33.53
2019-02-06T04:11:05.924Z,34.1
2019-02-06T04:12:05.900Z,34.47
2019-02-06T04:13:05.631Z,35.23
2019-02-06T04:14:05.857Z,35.52
2019-02-06T04:15:06.219Z,36.46
2019-02-06T04:16:05.882Z,37.12
2019-02-06T04:17:05.910Z,37.78
2019-02-06T04:18:05.779Z,38.26
2019-02-06T04:19:05.762Z,38.73
2019-02-06T04:20:05.517Z,39.48
2019-02-06T04:21:05.735Z,40.52
2019-02-06T04:22:05.701Z,41.09
2019-02-06T04:23:05.795Z,42.22
2019-02-06T04:24:05.659Z,42.5
2019-02-06T04:25:05.642Z,43.26
2019-02-06T04:26:05.624Z,44.02
2019-02-06T04:27:05.600Z,45.25
2019-02-06T04:28:05.583Z,46.09
2019-02-06T04:29:05.565Z,47.8
2019-02-06T04:30:05.560Z,48.65
2019-02-06T04:31:05.528Z,49.97
2019-02-06T04:32:05.536Z,51.1
2019-02-06T04:33:05.490Z,51.67
2019-02-06T04:34:05.462Z,52.7
2019-02-06T04:35:05.445Z,53.56
2019-02-06T04:36:05.417Z,54.03
2019-02-06T04:37:09.302Z,54.97
2019-02-06T04:38:05.690Z,56.39
2019-02-06T04:39:05.388Z,57.62
2019-02-06T04:40:05.348Z,58.37
2019-02-06T04:41:05.322Z,59.13
2019-02-06T04:42:05.307Z,60.27
2019-02-06T04:43:05.286Z,60.74
2019-02-06T04:44:05.267Z,61.11
2019-02-06T04:45:05.244Z,61.11
2019-02-06T04:46:05.617Z,60.93
2019-02-06T04:47:05.208Z,61.4
2019-02-06T04:48:05.214Z,61.87
2019-02-06T04:49:05.169Z,61.96
2019-02-06T04:50:05.150Z,62.06
2019-02-06T04:51:05.130Z,63.29
2019-02-06T04:52:05.109Z,64.98
2019-02-06T04:53:05.314Z,67.16
2019-02-06T04:54:05.077Z,67.82
2019-02-06T04:55:05.050Z,67.72
2019-02-06T04:56:05.033Z,68.86
2019-02-06T04:57:05.009Z,69.62
2019-02-06T04:58:04.992Z,71.03
2019-02-06T04:59:04.726Z,71.69
2019-02-06T05:00:04.965Z,73.02
2019-02-06T05:01:04.952Z,74.34
2019-02-06T05:02:04.924Z,74.71
2019-02-06T05:03:04.922Z,75.38
2019-02-06T05:04:04.871Z,75.38
2019-02-06T05:05:04.607Z,75.76
2019-02-06T05:06:04.840Z,75.57
2019-02-06T05:07:04.822Z,76.04
2019-02-06T05:08:04.965Z,75.95
2019-02-06T05:09:04.784Z,75.19
2019-02-06T05:10:04.754Z,74.3
2019-02-06T05:11:04.737Z,72.64
2019-02-06T05:12:04.716Z,71.94
2019-02-06T05:13:04.830Z,71.98
2019-02-06T05:14:04.433Z,71.69
2019-02-06T05:15:04.665Z,71.6
2019-02-06T05:16:04.978Z,70.37
2019-02-06T05:17:04.614Z,68.35
2019-02-06T05:18:04.594Z,67.22
2019-02-06T05:19:04.581Z,67.16
2019-02-06T05:20:04.555Z,67.16
2019-02-06T05:21:04.531Z,67.16
2019-02-06T05:22:04.269Z,66.88
2019-02-06T05:23:04.501Z,66.94
2019-02-06T05:24:04.477Z,67.44
2019-02-06T05:25:04.469Z,67.54
2019-02-06T05:26:04.446Z,68.44
2019-02-06T05:27:04.424Z,69.3
2019-02-06T05:28:04.398Z,69.2
2019-02-06T05:29:04.382Z,68.92
2019-02-06T05:30:04.393Z,68.07
2019-02-06T05:31:04.658Z,67.41
2019-02-06T05:32:04.367Z,67.6
2019-02-06T05:33:04.298Z,67.97
2019-02-06T05:34:04.283Z,68.54
2019-02-06T05:35:04.256Z,68.07
2019-02-06T05:36:04.239Z,68.26
2019-02-06T05:37:04.225Z,68.82
2019-02-06T05:38:04.202Z,69.3
2019-02-06T05:39:04.174Z,69.96
2019-02-06T05:40:04.162Z,70.9
2019-02-06T05:41:04.145Z,70.24
2019-02-06T05:42:03.883Z,69.49
2019-02-06T05:43:04.102Z,67.97
2019-02-06T05:44:03.833Z,68.16
2019-02-06T05:45:04.061Z,67.13
2019-02-06T05:46:04.401Z,65.42
2019-02-06T05:47:04.017Z,64.2
2019-02-06T05:48:03.993Z,63.26
2019-02-06T05:49:03.981Z,62.21
2019-02-06T05:50:03.999Z,61.18
2019-02-06T05:51:03.683Z,60.52
2019-02-06T05:52:03.913Z,58.72
2019-02-06T05:53:03.962Z,57.68
2019-02-06T05:54:03.871Z,55.32
2019-02-06T05:55:07.131Z,53.53
2019-02-06T05:56:03.864Z,52.49
2019-02-06T05:57:03.815Z,52.78
2019-02-06T05:58:03.796Z,53.63
2019-02-06T05:59:03.772Z,53.44
2019-02-06T06:00:03.994Z,52.78
2019-02-06T06:01:04.122Z,53.44
2019-02-06T06:02:03.471Z,54.28
2019-02-06T06:03:03.695Z,55.42
2019-02-06T06:04:03.672Z,56.46
2019-02-06T06:05:03.662Z,56.36
2019-02-06T06:06:03.633Z,55.98
2019-02-06T06:07:03.363Z,55.42
2019-02-06T06:08:03.627Z,55.42
2019-02-06T06:09:03.574Z,54.1
2019-02-06T06:10:03.592Z,52.49
2019-02-06T06:11:03.537Z,51.26
2019-02-06T06:12:03.543Z,50.13
2019-02-06T06:13:03.501Z,49.38
2019-02-06T06:14:03.500Z,48.15
2019-02-06T06:15:03.454Z,45.79
2019-02-06T06:16:03.789Z,45.03
2019-02-06T06:17:03.164Z,45.6
2019-02-06T06:18:03.403Z,46.45
2019-02-06T06:19:03.426Z,47.2
2019-02-06T06:20:03.353Z,47.3
2019-02-06T06:21:03.339Z,47.11
2019-02-06T06:22:03.312Z,46.64
2019-02-06T06:23:03.600Z,46.17
2019-02-06T06:24:03.269Z,45.32
2019-02-06T06:25:03.401Z,44.94
2019-02-06T06:26:03.317Z,44.56
2019-02-06T06:27:03.206Z,44.56
2019-02-06T06:28:03.188Z,44.49
2019-02-06T06:29:03.170Z,44.11
2019-02-06T06:30:02.897Z,43.16
2019-02-06T06:31:03.135Z,42.69
2019-02-06T06:32:03.116Z,42.32
2019-02-06T06:33:03.096Z,42.69
2019-02-06T06:34:03.067Z,43.16
2019-02-06T06:35:03.134Z,43.83
2019-02-06T06:36:03.028Z,45.06
2019-02-06T06:37:03.008Z,45.81
2019-02-06T06:38:05.110Z,46.75
2019-02-06T06:39:02.997Z,47.51
2019-02-06T06:40:02.951Z,48.55
2019-02-06T06:41:02.931Z,49.4
2019-02-06T06:42:02.915Z,49.87
2019-02-06T06:43:02.891Z,49.68
2019-02-06T06:44:02.868Z,50.25
2019-02-06T06:45:02.852Z,51.48
2019-02-06T06:46:03.172Z,52.89
2019-02-06T06:47:02.806Z,53.94
2019-02-06T06:48:02.786Z,55.44
2019-02-06T06:49:02.817Z,56.96
2019-02-06T06:50:02.762Z,58.09
2019-02-06T06:51:02.733Z,57.9
2019-02-06T06:52:03.959Z,57.81
2019-02-06T06:53:02.685Z,57.71
2019-02-06T06:54:02.664Z,57.34
2019-02-06T06:55:02.782Z,57.05
2019-02-06T06:56:02.643Z,57.34
2019-02-06T06:57:02.603Z,57.81
2019-02-06T06:58:02.587Z,58.18
2019-02-06T06:59:02.571Z,58.37
2019-02-06T07:00:02.706Z,57.71
2019-02-06T07:01:02.849Z,57.81
2019-02-06T07:02:02.508Z,59.13
2019-02-06T07:03:02.519Z,59.22
2019-02-06T07:04:02.468Z,58.18
2019-02-06T07:05:05.392Z,57.71
2019-02-06T07:06:02.431Z,58.37
2019-02-06T07:07:02.167Z,59.41
2019-02-06T07:08:13.450Z,59.7
2019-02-06T07:09:02.725Z,59.89
2019-02-06T07:10:02.121Z,61.11
2019-02-06T07:11:02.338Z,61.68
2019-02-06T07:12:02.321Z,62.91
2019-02-06T07:13:02.292Z,64.23
2019-02-06T07:14:02.297Z,65.55
2019-02-06T07:15:02.250Z,66.41
2019-02-06T07:16:02.919Z,67.16
2019-02-06T07:17:02.212Z,68.29
2019-02-06T07:18:02.200Z,70.94
2019-02-06T07:19:02.171Z,70.84
2019-02-06T07:20:02.156Z,71.03
2019-02-06T07:21:04.125Z,72.36
2019-02-06T07:22:02.120Z,72.55
2019-02-06T07:23:01.846Z,71.98
2019-02-06T07:24:02.351Z,72.55
2019-02-06T07:25:02.048Z,73.3
2019-02-06T07:26:02.033Z,74.24
2019-02-06T07:27:02.022Z,74.9
2019-02-06T07:28:01.996Z,75.85
2019-02-06T07:29:01.983Z,77.08
2019-02-06T07:30:01.961Z,77.55
2019-02-06T07:31:02.050Z,78.5
2019-02-06T07:32:02.248Z,78.87
2019-02-06T07:33:01.910Z,79.25
2019-02-06T07:34:01.889Z,80
2019-02-06T07:35:01.868Z,80.57
2019-02-06T07:36:01.838Z,80.66
2019-02-06T07:37:01.818Z,81.8
2019-02-06T07:38:01.553Z,83.4
2019-02-06T07:39:02.041Z,83.12
2019-02-06T07:40:01.759Z,83.03
2019-02-06T07:41:01.738Z,83.12
2019-02-06T07:42:01.726Z,83.22
2019-02-06T07:43:01.470Z,83.5
2019-02-06T07:44:01.683Z,83.78
2019-02-06T07:45:01.666Z,84.07
2019-02-06T07:46:01.642Z,84.35
2019-02-06T07:47:01.999Z,84.73
2019-02-06T07:48:01.605Z,85.68
2019-02-06T07:49:01.587Z,85.01
2019-02-06T07:50:01.319Z,84.64
2019-02-06T07:51:01.558Z,84.92
2019-02-06T07:52:01.529Z,85.11
2019-02-06T07:53:01.630Z,84.92
2019-02-06T07:54:01.490Z,85.68
2019-02-06T07:55:01.501Z,86.24
2019-02-06T07:56:01.456Z,86.24
2019-02-06T07:57:01.450Z,86.99
2019-02-06T07:58:01.413Z,87.75
2019-02-06T07:59:01.400Z,89.36
2019-02-06T08:00:01.374Z,89.45
2019-02-06T08:01:01.360Z,89.83
2019-02-06T08:02:01.618Z,91.2
2019-02-06T08:03:01.316Z,92.52
2019-02-06T08:04:01.292Z,93.09
2019-02-06T08:05:01.418Z,93.56
2019-02-06T08:06:01.262Z,94.22
2019-02-06T08:07:01.237Z,95.36
2019-02-06T08:08:01.222Z,96.4
2019-02-06T08:09:01.198Z,97.15
2019-02-06T08:10:01.178Z,98.47
2019-02-06T08:11:02.956Z,99.04
2019-02-06T08:12:01.150Z,99.99
2019-02-06T08:13:01.137Z,99.99
2019-02-06T08:14:01.104Z,99.99
2019-02-06T08:15:00.837Z,99.99
2019-02-06T08:16:01.063Z,99.99
2019-02-06T08:17:01.343Z,99.99
2019-02-06T08:18:01.029Z,99.99
2019-02-06T08:19:01.009Z,99.52
2019-02-06T08:20:00.987Z,99.99
2019-02-06T08:21:00.971Z,99.99
2019-02-06T08:22:00.955Z,99.99
2019-02-06T08:23:00.932Z,99.99
2019-02-06T08:24:00.923Z,99.99
2019-02-06T08:25:01.279Z,99.99
2019-02-06T08:26:00.878Z,99.99
2019-02-06T08:27:00.860Z,99.99
2019-02-06T08:28:00.844Z,99.99
2019-02-06T08:29:00.812Z,99.99
2019-02-06T08:30:00.556Z,99.99
2019-02-06T08:31:00.782Z,99.99
2019-02-06T08:32:00.832Z,99.99
2019-02-06T08:33:00.741Z,99.99
2019-02-06T08:34:00.733Z,99.99
2019-02-06T08:35:00.706Z,99.99
2019-02-06T08:36:00.691Z,99.99
2019-02-06T08:37:00.662Z,99.99
2019-02-06T08:38:00.401Z,99.99
2019-02-06T08:39:00.629Z,99.99
2019-02-06T08:40:00.800Z,99.99
2019-02-06T08:41:00.595Z,99.99
2019-02-06T08:42:00.569Z,99.99
2019-02-06T08:43:00.555Z,99.99
2019-02-06T08:44:01.785Z,99.99
2019-02-06T08:45:00.516Z,99.99
2019-02-06T08:46:00.505Z,99.99
2019-02-06T08:47:00.484Z,99.99
2019-02-06T08:48:00.810Z,99.99
2019-02-06T08:49:00.449Z,99.99
2019-02-06T08:50:00.425Z,99.99
2019-02-06T08:51:00.255Z,99.99
2019-02-06T08:52:00.388Z,99.99
2019-02-06T08:53:00.369Z,99.99
2019-02-06T08:54:00.363Z,99.99
2019-02-06T08:55:00.575Z,99.99
2019-02-06T08:56:00.308Z,99.99
2019-02-06T08:57:00.294Z,99.99
2019-02-06T08:58:00.029Z,99.99
2019-02-06T08:59:00.010Z,99.99
2019-02-06T09:00:00.317Z,99.99
2019-02-06T09:01:00.223Z,99.99
2019-02-06T09:02:00.204Z,99.99
2019-02-06T09:03:00.542Z,99.99
2019-02-06T09:04:00.168Z,99.99
2019-02-06T09:05:00.216Z,99.99
2019-02-06T09:06:00.135Z,99.99
2019-02-06T09:07:00.108Z,99.99
2019-02-06T09:08:00.104Z,99.99
2019-02-06T09:09:02.299Z,99.99
2019-02-06T09:10:00.103Z,99.99
2019-02-06T09:11:00.045Z,99.99
2019-02-06T09:12:00.016Z,99.99
2019-02-06T09:12:59.998Z,99.99
2019-02-06T09:13:59.982Z,99.99
2019-02-06T09:14:59.965Z,99.99
2019-02-06T09:15:59.942Z,99.99
2019-02-06T09:16:59.926Z,99.99
2019-02-06T09:18:00.237Z,99.99
2019-02-06T09:18:59.645Z,99.99
2019-02-06T09:19:59.869Z,99.99
2019-02-06T09:20:59.853Z,99.99
2019-02-06T09:21:59.835Z,99.99
2019-02-06T09:22:59.833Z,99.99
2019-02-06T09:23:59.800Z,99.99
2019-02-06T09:24:59.787Z,99.99
2019-02-06T09:26:00.383Z,99.99
2019-02-06T09:26:59.739Z,99.99
2019-02-06T09:27:59.722Z,99.99
2019-02-06T09:28:59.709Z,99.99
2019-02-06T09:29:59.689Z,99.99
2019-02-06T09:30:59.669Z,99.99
2019-02-06T09:32:01.879Z,99.99
2019-02-06T09:32:59.946Z,99.99
2019-02-06T09:33:59.619Z,99.99
2019-02-06T09:34:59.351Z,99.99
2019-02-06T09:35:59.583Z,99.99
2019-02-06T09:36:59.560Z,99.99
2019-02-06T09:37:59.547Z,99.99
2019-02-06T09:39:10.697Z,99.99
2019-02-06T09:39:59.510Z,99.99
2019-02-06T09:40:59.804Z,99.99
2019-02-06T09:41:59.469Z,99.99
2019-02-06T09:42:59.207Z,99.99
2019-02-06T09:43:59.437Z,99.99
2019-02-06T09:44:59.423Z,99.99
2019-02-06T09:45:59.619Z,99.99
2019-02-06T09:46:59.381Z,99.99
2019-02-06T09:47:59.608Z,99.99
2019-02-06T09:48:59.342Z,99.99
2019-02-06T09:49:59.334Z,99.99
2019-02-06T09:50:59.306Z,99.99
2019-02-06T09:51:59.291Z,99.99
2019-02-06T09:52:59.276Z,99.99
2019-02-06T09:53:59.253Z,99.99
2019-02-06T09:54:59.232Z,99.99
2019-02-06T09:55:59.538Z,99.99
2019-02-06T09:56:59.198Z,99.99
2019-02-06T09:57:59.174Z,99.99
2019-02-06T09:58:59.165Z,99.99
2019-02-06T09:59:59.141Z,99.99
2019-02-06T10:00:59.129Z,99.99
2019-02-06T10:01:59.110Z,99.99
2019-02-06T10:02:59.204Z,99.99
2019-02-06T10:03:59.076Z,99.99
2019-02-06T10:04:59.050Z,99.99
2019-02-06T10:05:59.034Z,99.99
2019-02-06T10:06:59.017Z,99.99
2019-02-06T10:07:59.007Z,99.99
2019-02-06T10:08:58.979Z,99.99
2019-02-06T10:10:00.502Z,99.99
2019-02-06T10:10:59.199Z,99.99
2019-02-06T10:11:58.926Z,99.99
2019-02-06T10:12:58.909Z,99.99
2019-02-06T10:13:58.887Z,99.99
2019-02-06T10:14:58.875Z,99.99
2019-02-06T10:15:58.854Z,99.99
2019-02-06T10:16:58.842Z,99.99
2019-02-06T10:17:58.816Z,99.99
2019-02-06T10:18:58.931Z,99.99
2019-02-06T10:19:58.784Z,99.99
2019-02-06T10:20:58.772Z,99.99
2019-02-06T10:21:58.750Z,99.99
2019-02-06T10:22:58.733Z,99.99
2019-02-06T10:23:58.716Z,99.99
2019-02-06T10:24:58.702Z,99.99
2019-02-06T10:25:58.876Z,99.99
2019-02-06T10:26:58.662Z,99.99
2019-02-06T10:27:58.640Z,99.99
2019-02-06T10:28:58.629Z,99.99
2019-02-06T10:29:58.606Z,99.99
2019-02-06T10:30:58.598Z,99.99
2019-02-06T10:31:58.570Z,99.99
2019-02-06T10:32:58.550Z,99.99
2019-02-06T10:33:58.818Z,99.99
2019-02-06T10:34:58.522Z,99.99
2019-02-06T10:35:58.499Z,99.99
2019-02-06T10:36:58.492Z,99.99
2019-02-06T10:37:58.466Z,99.99
2019-02-06T10:38:58.449Z,99.99
2019-02-06T10:40:00.946Z,99.99
2019-02-06T10:40:58.412Z,99.99
2019-02-06T10:41:58.404Z,99.99
2019-02-06T10:42:58.385Z,99.99
2019-02-06T10:43:58.365Z,99.99
2019-02-06T10:44:58.347Z,99.99
2019-02-06T10:45:58.082Z,99.99
2019-02-06T10:46:58.065Z,99.99
2019-02-06T10:47:58.343Z,99.99
2019-02-06T10:48:58.429Z,99.99
2019-02-06T10:49:58.268Z,99.99
2019-02-06T10:51:00.799Z,99.99
2019-02-06T10:51:58.230Z,99.99
2019-02-06T10:52:58.221Z,99.99
2019-02-06T10:53:58.199Z,99.99
2019-02-06T10:54:58.181Z,99.99
2019-02-06T10:55:58.172Z,99.99
2019-02-06T10:56:58.436Z,99.99
2019-02-06T10:57:58.133Z,99.99
2019-02-06T10:58:58.111Z,99.99
2019-02-06T10:59:58.094Z,99.99
2019-02-06T11:00:58.084Z,99.99
2019-02-06T11:01:58.066Z,99.99
2019-02-06T11:02:58.047Z,99.99
2019-02-06T11:03:58.175Z,99.99
2019-02-06T11:04:57.768Z,99.99
2019-02-06T11:05:57.752Z,99.99
2019-02-06T11:06:57.988Z,99.99
2019-02-06T11:07:57.973Z,99.99
2019-02-06T11:08:57.951Z,99.99
2019-02-06T11:09:57.941Z,99.99
2019-02-06T11:10:57.977Z,99.99
2019-02-06T11:11:58.303Z,99.99
2019-02-06T11:12:57.887Z,99.99
2019-02-06T11:13:57.872Z,99.99
2019-02-06T11:14:57.861Z,99.99
2019-02-06T11:15:57.837Z,99.99
2019-02-06T11:16:57.826Z,99.99
2019-02-06T11:17:57.799Z,99.99
2019-02-06T11:18:57.790Z,99.99
2019-02-06T11:19:57.773Z,99.99
2019-02-06T11:20:57.754Z,99.99
2019-02-06T11:21:57.748Z,99.99
2019-02-06T11:22:57.721Z,99.99
2019-02-06T11:23:57.702Z,99.99
2019-02-06T11:24:57.687Z,99.99
2019-02-06T11:25:57.672Z,99.99
2019-02-06T11:26:58.021Z,99.99
2019-02-06T11:27:57.643Z,99.99
2019-02-06T11:28:57.620Z,99.99
2019-02-06T11:29:57.625Z,99.99
2019-02-06T11:30:59.577Z,99.99
2019-02-06T11:31:57.631Z,99.99
2019-02-06T11:32:57.561Z,99.99
2019-02-06T11:33:57.702Z,99.99
2019-02-06T11:34:57.800Z,99.99
2019-02-06T11:35:57.514Z,99.99
2019-02-06T11:36:57.494Z,99.99
2019-02-06T11:37:57.479Z,99.99
2019-02-06T11:38:57.461Z,99.99
2019-02-06T11:40:00.634Z,99.99
2019-02-06T11:40:57.433Z,99.99
2019-02-06T11:41:57.417Z,99.99
2019-02-06T11:42:57.403Z,99.99
2019-02-06T11:43:57.385Z,99.99
2019-02-06T11:44:57.373Z,99.99
2019-02-06T11:45:57.349Z,99.99
2019-02-06T11:46:57.338Z,99.99
2019-02-06T11:47:57.320Z,99.99
2019-02-06T11:48:57.306Z,99.99
2019-02-06T11:49:57.610Z,99.99
2019-02-06T11:50:57.284Z,99.99
2019-02-06T11:51:57.258Z,99.99
2019-02-06T11:52:57.238Z,99.99
2019-02-06T11:53:57.225Z,99.99
2019-02-06T11:54:57.211Z,99.99
2019-02-06T11:55:57.187Z,99.99
2019-02-06T11:56:56.922Z,99.99
2019-02-06T11:57:57.470Z,99.99
2019-02-06T11:58:57.145Z,99.99
2019-02-06T11:59:57.131Z,99.99
2019-02-06T12:00:57.112Z,99.99
2019-02-06T12:01:57.093Z,99.99
2019-02-06T12:02:57.094Z,99.99
2019-02-06T12:03:57.064Z,99.99
2019-02-06T12:04:57.199Z,99.99
2019-02-06T12:05:57.040Z,99.99
2019-02-06T12:06:57.026Z,99.99
2019-02-06T12:07:57.005Z,99.99
2019-02-06T12:08:56.985Z,99.99
2019-02-06T12:09:56.969Z,99.99
2019-02-06T12:10:56.951Z,99.99
2019-02-06T12:11:56.935Z,99.99
2019-02-06T12:12:57.285Z,99.99
2019-02-06T12:13:56.902Z,99.99
2019-02-06T12:14:56.890Z,99.99
2019-02-06T12:15:56.876Z,99.99
2019-02-06T12:16:56.860Z,99.99
2019-02-06T12:17:56.853Z,99.99
2019-02-06T12:18:56.821Z,99.99
2019-02-06T12:19:56.909Z,99.99
2019-02-06T12:20:56.797Z,99.99
2019-02-06T12:21:56.774Z,99.99
2019-02-06T12:22:56.759Z,99.99
2019-02-06T12:23:56.744Z,99.99
2019-02-06T12:24:56.726Z,99.99
2019-02-06T12:25:56.710Z,99.99
2019-02-06T12:26:56.700Z,99.99
2019-02-06T12:27:57.075Z,99.99
2019-02-06T12:28:56.666Z,99.99
2019-02-06T12:29:56.652Z,99.99
2019-02-06T12:30:58.619Z,99.99
2019-02-06T12:31:56.368Z,99.99
2019-02-06T12:32:56.353Z,99.99
2019-02-06T12:33:56.589Z,99.99
2019-02-06T12:34:56.766Z,99.99
2019-02-06T12:35:56.548Z,99.99
2019-02-06T12:36:56.535Z,99.99
2019-02-06T12:37:56.517Z,99.99
2019-02-06T12:38:56.512Z,99.99
2019-02-06T12:39:56.495Z,99.99
2019-02-06T12:40:56.477Z,99.99
2019-02-06T12:41:56.694Z,99.99
2019-02-06T12:42:56.191Z,99.99
2019-02-06T12:43:56.417Z,99.99
2019-02-06T12:44:58.913Z,99.99
2019-02-06T12:45:56.400Z,99.99
2019-02-06T12:46:56.377Z,99.99
2019-02-06T12:47:56.409Z,99.99
2019-02-06T12:48:56.547Z,99.99
2019-02-06T12:49:56.325Z,99.99
2019-02-06T12:50:56.309Z,99.99
2019-02-06T12:51:56.294Z,99.99
2019-02-06T12:52:57.378Z,99.99
2019-02-06T12:53:56.281Z,99.99